createdAt,value
2018-06-16T00:00:51.968Z,18.64
2018-06-16T00:01:51.995Z,18.61
2018-06-16T00:02:52.020Z,18.67
2018-06-16T00:03:52.046Z,18.68
2018-06-16T00:04:52.061Z,18.68
2018-06-16T00:05:52.088Z,18.63
2018-06-16T00:06:52.130Z,18.66
2018-06-16T00:07:52.137Z,18.57
2018-06-16T00:08:52.169Z,18.64
2018-06-16T00:09:52.180Z,18.64
2018-06-16T00:10:52.203Z,18.57
2018-06-16T00:11:52.241Z,18.51
2018-06-16T00:12:52.255Z,18.49
2018-06-16T00:13:52.281Z,18.53
2018-06-16T00:14:52.294Z,18.60
2018-06-16T00:15:52.320Z,18.55
2018-06-16T00:16:52.349Z,18.46
2018-06-16T00:17:52.372Z,18.51
2018-06-16T00:18:52.385Z,18.49
2018-06-16T00:19:52.411Z,18.45
2018-06-16T00:20:52.438Z,18.43
2018-06-16T00:21:52.462Z,18.48
2018-06-16T00:22:52.477Z,18.46
2018-06-16T00:23:52.503Z,18.43
2018-06-16T00:24:52.529Z,18.49
2018-06-16T00:25:52.555Z,18.42
2018-06-16T00:26:52.580Z,18.45
2018-06-16T00:27:52.593Z,18.45
2018-06-16T00:28:52.620Z,18.36
2018-06-16T00:29:52.645Z,18.42
2018-06-16T00:30:52.672Z,18.39
2018-06-16T00:31:52.698Z,18.37
2018-06-16T00:32:52.713Z,18.41
2018-06-16T00:33:52.737Z,18.37
2018-06-16T00:34:52.763Z,18.36
2018-06-16T00:35:52.792Z,18.41
2018-06-16T00:36:52.801Z,18.39
2018-06-16T00:37:52.827Z,18.33
2018-06-16T00:38:52.854Z,18.39
2018-06-16T00:39:52.879Z,18.36
2018-06-16T00:40:52.906Z,18.39
2018-06-16T00:41:52.930Z,18.30
2018-06-16T00:42:52.950Z,18.30
2018-06-16T00:43:52.971Z,18.27
2018-06-16T00:44:53.000Z,18.33
2018-06-16T00:45:53.010Z,18.34
2018-06-16T00:46:53.036Z,18.33
2018-06-16T00:47:53.064Z,18.33
2018-06-16T00:48:53.088Z,18.28
2018-06-16T00:49:53.104Z,18.26
2018-06-16T00:50:53.128Z,18.24
2018-06-16T00:51:53.158Z,18.24
2018-06-16T00:52:53.226Z,18.30
2018-06-16T00:53:53.206Z,18.27
2018-06-16T00:54:53.220Z,18.21
2018-06-16T00:55:53.245Z,18.26
2018-06-16T00:56:53.270Z,18.13
2018-06-16T00:57:53.297Z,18.30
2018-06-16T00:58:53.311Z,18.21
2018-06-16T00:59:53.336Z,18.30
2018-06-16T01:00:53.362Z,18.27
2018-06-16T01:01:53.389Z,18.28
2018-06-16T01:02:53.401Z,18.27
2018-06-16T01:03:53.430Z,18.28
2018-06-16T01:04:53.453Z,18.16
2018-06-16T01:05:53.480Z,18.16
2018-06-16T01:06:53.494Z,18.24
2018-06-16T01:07:53.518Z,18.21
2018-06-16T01:08:53.545Z,18.28
2018-06-16T01:09:53.571Z,18.15
2018-06-16T01:10:53.584Z,18.09
2018-06-16T01:11:53.609Z,18.19
2018-06-16T01:12:53.635Z,18.19
2018-06-16T01:13:53.661Z,18.18
2018-06-16T01:14:53.688Z,18.21
2018-06-16T01:15:53.705Z,18.16
2018-06-16T01:16:53.729Z,18.15
2018-06-16T01:17:53.754Z,18.08
2018-06-16T01:18:53.780Z,18.12
2018-06-16T01:19:53.795Z,18.18
2018-06-16T01:20:53.818Z,18.18
2018-06-16T01:21:53.844Z,18.15
2018-06-16T01:22:53.871Z,18.15
2018-06-16T01:23:53.896Z,18.06
2018-06-16T01:24:53.910Z,18.05
2018-06-16T01:25:53.937Z,18.02
2018-06-16T01:26:53.963Z,18.02
2018-06-16T01:27:53.976Z,18.05
2018-06-16T01:28:54.001Z,18.06
2018-06-16T01:29:54.027Z,17.98
2018-06-16T01:30:54.055Z,18.06
2018-06-16T01:31:54.067Z,17.94
2018-06-16T01:32:54.094Z,18.00
2018-06-16T01:33:54.119Z,17.91
2018-06-16T01:34:54.145Z,17.87
2018-06-16T01:35:54.158Z,17.86
2018-06-16T01:36:54.183Z,17.95
2018-06-16T01:37:54.225Z,17.93
2018-06-16T01:38:54.235Z,17.87
2018-06-16T01:39:54.251Z,17.86
2018-06-16T01:40:54.275Z,17.79
2018-06-16T01:41:54.301Z,17.90
2018-06-16T01:42:54.328Z,17.86
2018-06-16T01:43:54.342Z,17.78
2018-06-16T01:44:54.380Z,17.75
2018-06-16T01:45:54.393Z,17.78
2018-06-16T01:46:54.419Z,17.71
2018-06-16T01:47:54.433Z,17.73
2018-06-16T01:48:54.459Z,17.71
2018-06-16T01:49:54.484Z,17.68
2018-06-16T01:50:54.512Z,17.72
2018-06-16T01:51:54.523Z,17.71
2018-06-16T01:52:54.549Z,17.68
2018-06-16T01:53:54.575Z,17.68
2018-06-16T01:54:54.602Z,17.68
2018-06-16T01:55:54.616Z,17.73
2018-06-16T01:56:54.641Z,17.53
2018-06-16T01:57:54.667Z,17.57
2018-06-16T01:58:54.682Z,17.57
2018-06-16T01:59:54.706Z,17.63
2018-06-16T02:00:54.732Z,17.54
2018-06-16T02:01:54.757Z,17.54
2018-06-16T02:02:54.771Z,17.56
2018-06-16T02:03:54.798Z,17.54
2018-06-16T02:04:54.823Z,17.63
2018-06-16T02:05:54.850Z,17.59
2018-06-16T02:06:54.864Z,17.65
2018-06-16T02:07:54.901Z,17.56
2018-06-16T02:08:54.914Z,17.57
2018-06-16T02:09:54.941Z,17.57
2018-06-16T02:10:54.954Z,17.65
2018-06-16T02:11:54.981Z,17.60
2018-06-16T02:12:55.007Z,17.50
2018-06-16T02:13:55.033Z,17.50
2018-06-16T02:14:55.046Z,17.57
2018-06-16T02:15:55.071Z,17.54
2018-06-16T02:16:55.097Z,17.52
2018-06-16T02:17:55.123Z,17.50
2018-06-16T02:18:55.137Z,17.54
2018-06-16T02:19:55.163Z,17.60
2018-06-16T02:20:55.189Z,17.52
2018-06-16T02:21:55.202Z,17.53
2018-06-16T02:22:55.227Z,17.46
2018-06-16T02:23:55.253Z,17.54
2018-06-16T02:24:55.279Z,17.56
2018-06-16T02:25:55.293Z,17.56
2018-06-16T02:26:55.319Z,17.54
2018-06-16T02:27:55.345Z,17.52
2018-06-16T02:28:55.373Z,17.56
2018-06-16T02:29:55.385Z,17.59
2018-06-16T02:30:55.410Z,17.50
2018-06-16T02:31:55.444Z,17.56
2018-06-16T02:32:55.452Z,17.46
2018-06-16T02:33:55.477Z,17.44
2018-06-16T02:34:55.507Z,17.46
2018-06-16T02:35:55.528Z,17.56
2018-06-16T02:36:55.541Z,17.42
2018-06-16T02:37:55.571Z,17.52
2018-06-16T02:38:55.595Z,17.56
2018-06-16T02:39:55.620Z,17.54
2018-06-16T02:40:55.633Z,17.57
2018-06-16T02:41:55.662Z,17.49
2018-06-16T02:42:55.687Z,17.46
2018-06-16T02:43:55.699Z,17.41
2018-06-16T02:44:55.754Z,17.44
2018-06-16T02:45:55.755Z,17.41
2018-06-16T02:46:55.776Z,17.41
2018-06-16T02:47:55.790Z,17.53
2018-06-16T02:48:55.817Z,17.54
2018-06-16T02:49:55.841Z,17.42
2018-06-16T02:50:55.867Z,17.53
2018-06-16T02:51:55.880Z,17.50
2018-06-16T02:52:55.906Z,17.39
2018-06-16T02:53:55.932Z,17.49
2018-06-16T02:54:55.989Z,17.42
2018-06-16T02:55:55.973Z,17.42
2018-06-16T02:56:55.999Z,17.52
2018-06-16T02:57:56.026Z,17.50
2018-06-16T02:58:56.037Z,17.46
2018-06-16T02:59:56.063Z,17.50
2018-06-16T03:00:56.089Z,17.52
2018-06-16T03:01:56.115Z,17.50
2018-06-16T03:02:56.129Z,17.57
2018-06-16T03:03:56.155Z,17.54
2018-06-16T03:04:56.181Z,17.56
2018-06-16T03:05:56.206Z,17.56
2018-06-16T03:06:56.219Z,17.52
2018-06-16T03:07:56.245Z,17.53
2018-06-16T03:08:56.277Z,17.47
2018-06-16T03:09:56.297Z,17.54
2018-06-16T03:10:56.312Z,17.50
2018-06-16T03:11:56.340Z,17.56
2018-06-16T03:12:56.362Z,17.53
2018-06-16T03:13:56.377Z,17.60
2018-06-16T03:14:56.403Z,17.47
2018-06-16T03:15:56.428Z,17.52
2018-06-16T03:16:56.454Z,17.54
2018-06-16T03:17:56.471Z,17.57
2018-06-16T03:18:56.494Z,17.59
2018-06-16T03:19:56.520Z,17.56
2018-06-16T03:20:56.546Z,17.57
2018-06-16T03:21:56.559Z,17.66
2018-06-16T03:22:56.584Z,17.53
2018-06-16T03:23:56.610Z,17.52
2018-06-16T03:24:56.637Z,17.54
2018-06-16T03:25:56.653Z,17.50
2018-06-16T03:26:56.681Z,17.54
2018-06-16T03:27:56.702Z,17.66
2018-06-16T03:28:56.749Z,17.65
2018-06-16T03:29:56.742Z,17.68
2018-06-16T03:30:56.767Z,17.60
2018-06-16T03:31:56.793Z,17.68
2018-06-16T03:32:56.832Z,17.66
2018-06-16T03:33:56.838Z,17.59
2018-06-16T03:34:56.859Z,17.69
2018-06-16T03:35:56.886Z,17.72
2018-06-16T03:36:56.903Z,17.69
2018-06-16T03:37:56.923Z,17.73
2018-06-16T03:38:56.949Z,17.73
2018-06-16T03:39:56.989Z,17.76
2018-06-16T03:40:57.001Z,17.78
2018-06-16T03:41:57.015Z,17.86
2018-06-16T03:42:57.042Z,17.82
2018-06-16T03:43:57.068Z,17.82
2018-06-16T03:44:57.081Z,17.80
2018-06-16T03:45:57.106Z,17.87
2018-06-16T03:46:57.133Z,17.88
2018-06-16T03:47:57.162Z,17.86
2018-06-16T03:48:57.184Z,17.88
2018-06-16T03:49:57.200Z,17.88
2018-06-16T03:50:57.224Z,17.90
2018-06-16T03:51:57.250Z,17.93
2018-06-16T03:52:57.276Z,17.97
2018-06-16T03:53:57.289Z,17.91
2018-06-16T03:54:57.315Z,18.02
2018-06-16T03:55:57.340Z,17.94
2018-06-16T03:56:57.368Z,17.94
2018-06-16T03:57:57.380Z,18.00
2018-06-16T03:58:57.407Z,18.05
2018-06-16T03:59:57.433Z,18.11
2018-06-16T04:00:57.458Z,18.03
2018-06-16T04:01:57.474Z,18.05
2018-06-16T04:02:57.498Z,18.15
2018-06-16T04:03:57.523Z,18.12
2018-06-16T04:04:57.549Z,18.18
2018-06-16T04:05:57.575Z,18.13
2018-06-16T04:06:57.592Z,18.19
2018-06-16T04:07:57.615Z,18.13
2018-06-16T04:08:57.642Z,18.11
2018-06-16T04:09:57.667Z,18.27
2018-06-16T04:10:57.684Z,18.26
2018-06-16T04:11:57.712Z,18.30
2018-06-16T04:12:57.743Z,18.27
2018-06-16T04:13:57.758Z,18.30
2018-06-16T04:14:57.784Z,18.27
2018-06-16T04:15:57.799Z,18.31
2018-06-16T04:16:57.827Z,18.30
2018-06-16T04:17:57.851Z,18.34
2018-06-16T04:18:57.879Z,18.37
2018-06-16T04:19:57.907Z,18.36
2018-06-16T04:20:57.915Z,18.36
2018-06-16T04:21:57.941Z,18.41
2018-06-16T04:22:57.973Z,18.45
2018-06-16T04:23:58.052Z,18.49
2018-06-16T04:24:58.022Z,18.46
2018-06-16T04:25:58.033Z,18.52
2018-06-16T04:26:58.060Z,18.49
2018-06-16T04:27:58.086Z,18.49
2018-06-16T04:28:58.112Z,18.57
2018-06-16T04:29:58.138Z,18.64
2018-06-16T04:30:58.149Z,18.63
2018-06-16T04:31:58.189Z,18.64
2018-06-16T04:32:58.202Z,18.68
2018-06-16T04:33:58.228Z,18.83
2018-06-16T04:34:58.255Z,18.78
2018-06-16T04:35:58.268Z,18.85
2018-06-16T04:36:58.293Z,18.81
2018-06-16T04:37:58.320Z,18.85
2018-06-16T04:38:58.344Z,18.89
2018-06-16T04:39:58.372Z,18.94
2018-06-16T04:40:58.385Z,18.94
2018-06-16T04:41:58.410Z,18.92
2018-06-16T04:42:58.435Z,19.01
2018-06-16T04:43:58.461Z,19.08
2018-06-16T04:44:58.488Z,19.08
2018-06-16T04:45:58.513Z,19.15
2018-06-16T04:46:58.528Z,19.15
2018-06-16T04:47:58.553Z,19.20
2018-06-16T04:48:58.580Z,19.22
2018-06-16T04:49:58.606Z,19.32
2018-06-16T04:50:58.632Z,19.27
2018-06-16T04:51:58.661Z,19.45
2018-06-16T04:52:58.672Z,19.42
2018-06-16T04:53:58.697Z,19.44
2018-06-16T04:54:58.724Z,19.48
2018-06-16T04:55:58.748Z,19.48
2018-06-16T04:56:58.793Z,19.38
2018-06-16T04:57:58.800Z,19.45
2018-06-16T04:58:58.825Z,19.55
2018-06-16T04:59:58.866Z,19.67
2018-06-16T05:00:58.866Z,19.72
2018-06-16T05:01:58.891Z,19.75
2018-06-16T05:02:58.920Z,19.67
2018-06-16T05:03:58.944Z,19.78
2018-06-16T05:04:58.970Z,19.75
2018-06-16T05:05:58.997Z,19.85
2018-06-16T05:06:59.021Z,19.87
2018-06-16T05:07:59.035Z,19.90
2018-06-16T05:08:59.060Z,19.89
2018-06-16T05:09:59.085Z,20.03
2018-06-16T05:10:59.112Z,20.04
2018-06-16T05:11:59.137Z,20.11
2018-06-16T05:12:59.164Z,20.17
2018-06-16T05:13:59.190Z,20.18
2018-06-16T05:14:59.216Z,20.29
2018-06-16T05:15:59.242Z,20.19
2018-06-16T05:16:59.323Z,20.18
2018-06-16T05:17:59.295Z,20.37
2018-06-16T05:18:59.308Z,20.39
2018-06-16T05:19:59.337Z,20.39
2018-06-16T05:20:59.361Z,20.50
2018-06-16T05:21:59.428Z,20.53
2018-06-16T05:22:59.412Z,20.55
2018-06-16T05:23:59.438Z,20.64
2018-06-16T05:24:59.463Z,20.60
2018-06-16T05:25:59.490Z,20.66
2018-06-16T05:26:59.515Z,20.80
2018-06-16T05:27:59.540Z,20.75
2018-06-16T05:28:59.569Z,20.85
2018-06-16T05:29:59.592Z,20.85
2018-06-16T05:30:59.619Z,20.95
2018-06-16T05:31:59.633Z,21.05
2018-06-16T05:32:59.659Z,21.04
2018-06-16T05:33:59.697Z,21.08
2018-06-16T05:34:59.709Z,21.14
2018-06-16T05:35:59.736Z,21.25
2018-06-16T05:36:59.761Z,21.22
2018-06-16T05:37:59.787Z,21.19
2018-06-16T05:38:59.813Z,21.29
2018-06-16T05:39:59.840Z,21.30
2018-06-16T05:40:59.865Z,21.38
2018-06-16T05:41:59.894Z,21.45
2018-06-16T05:42:59.929Z,21.45
2018-06-16T05:43:59.943Z,21.53
2018-06-16T05:44:59.969Z,21.63
2018-06-16T05:45:59.997Z,21.66
2018-06-16T05:47:00.025Z,21.78
2018-06-16T05:48:00.047Z,21.72
2018-06-16T05:49:00.073Z,21.83
2018-06-16T05:50:00.099Z,21.91
2018-06-16T05:51:00.125Z,21.96
2018-06-16T05:52:00.151Z,22.08
2018-06-16T05:53:00.176Z,22.01
2018-06-16T05:54:00.217Z,22.12
2018-06-16T05:55:00.229Z,22.14
2018-06-16T05:56:00.255Z,22.22
2018-06-16T05:57:00.280Z,22.23
2018-06-16T05:58:00.321Z,22.30
2018-06-16T05:59:00.332Z,22.34
2018-06-16T06:00:00.360Z,22.28
2018-06-16T06:01:00.399Z,22.41
2018-06-16T06:02:00.423Z,22.47
2018-06-16T06:03:00.450Z,22.49
2018-06-16T06:04:00.476Z,22.56
2018-06-16T06:05:00.503Z,22.62
2018-06-16T06:06:00.527Z,22.65
2018-06-16T06:07:00.553Z,22.76
2018-06-16T06:08:00.580Z,22.77
2018-06-16T06:09:00.606Z,22.93
2018-06-16T06:10:00.631Z,22.93
2018-06-16T06:11:00.659Z,22.92
2018-06-16T06:12:00.700Z,22.96
2018-06-16T06:13:00.709Z,23.06
2018-06-16T06:14:00.749Z,23.08
2018-06-16T06:15:00.776Z,23.14
2018-06-16T06:16:00.801Z,23.21
2018-06-16T06:17:00.826Z,23.29
2018-06-16T06:18:00.864Z,23.29
2018-06-16T06:19:00.880Z,23.37
2018-06-16T06:20:00.917Z,23.42
2018-06-16T06:21:00.930Z,23.51
2018-06-16T06:22:00.956Z,23.56
2018-06-16T06:23:00.984Z,23.59
2018-06-16T06:24:01.019Z,23.64
2018-06-16T06:25:01.047Z,23.64
2018-06-16T06:26:01.072Z,23.64
2018-06-16T06:27:01.097Z,23.74
2018-06-16T06:28:01.122Z,23.79
2018-06-16T06:29:01.149Z,23.86
2018-06-16T06:30:01.177Z,23.86
2018-06-16T06:31:01.212Z,23.91
2018-06-16T06:32:01.323Z,23.99
2018-06-16T06:33:01.265Z,24.03
2018-06-16T06:34:01.292Z,24.09
2018-06-16T06:35:01.317Z,24.09
2018-06-16T06:36:01.343Z,24.16
2018-06-16T06:37:01.370Z,24.11
2018-06-16T06:38:01.408Z,24.19
2018-06-16T06:39:01.435Z,24.24
2018-06-16T06:40:01.460Z,24.34
2018-06-16T06:41:01.486Z,24.38
2018-06-16T06:42:01.513Z,24.51
2018-06-16T06:43:01.571Z,24.50
2018-06-16T06:44:01.575Z,24.50
2018-06-16T06:45:01.615Z,24.53
2018-06-16T06:46:01.643Z,24.61
2018-06-16T06:47:01.655Z,24.63
2018-06-16T06:48:01.681Z,24.61
2018-06-16T06:49:01.718Z,24.63
2018-06-16T06:50:01.753Z,24.74
2018-06-16T06:51:01.773Z,24.69
2018-06-16T06:52:01.798Z,24.84
2018-06-16T06:53:01.838Z,24.82
2018-06-16T06:54:01.872Z,24.89
2018-06-16T06:55:01.887Z,24.92
2018-06-16T06:56:01.912Z,25.00
2018-06-16T06:57:01.938Z,24.99
2018-06-16T06:58:02.076Z,25.01
2018-06-16T06:59:02.003Z,25.09
2018-06-16T07:00:02.030Z,25.16
2018-06-16T07:01:02.058Z,25.14
2018-06-16T07:02:02.092Z,25.16
2018-06-16T07:03:02.123Z,25.24
2018-06-16T07:04:02.231Z,25.29
2018-06-16T07:05:02.171Z,25.36
2018-06-16T07:06:02.198Z,25.37
2018-06-16T07:07:02.237Z,25.29
2018-06-16T07:08:02.267Z,25.30
2018-06-16T07:09:02.287Z,25.41
2018-06-16T07:10:02.313Z,25.55
2018-06-16T07:11:02.354Z,25.49
2018-06-16T07:12:02.377Z,25.54
2018-06-16T07:13:02.404Z,25.61
2018-06-16T07:14:02.431Z,25.58
2018-06-16T07:15:02.469Z,25.68
2018-06-16T07:16:02.495Z,25.73
2018-06-16T07:17:02.521Z,25.70
2018-06-16T07:18:02.559Z,25.89
2018-06-16T07:19:02.584Z,25.93
2018-06-16T07:20:02.610Z,25.91
2018-06-16T07:21:02.650Z,25.93
2018-06-16T07:22:02.675Z,26.15
2018-06-16T07:23:02.704Z,26.10
2018-06-16T07:24:02.740Z,26.11
2018-06-16T07:25:02.764Z,26.23
2018-06-16T07:26:02.793Z,26.33
2018-06-16T07:27:02.866Z,26.24
2018-06-16T07:28:02.855Z,26.39
2018-06-16T07:29:02.884Z,26.39
2018-06-16T07:30:02.920Z,26.52
2018-06-16T07:31:02.945Z,26.59
2018-06-16T07:32:02.973Z,26.63
2018-06-16T07:33:03.011Z,26.63
2018-06-16T07:34:03.037Z,26.73
2018-06-16T07:35:03.075Z,26.76
2018-06-16T07:36:03.104Z,26.76
2018-06-16T07:37:03.142Z,26.83
2018-06-16T07:38:03.165Z,26.92
2018-06-16T07:39:03.192Z,26.93
2018-06-16T07:40:03.229Z,26.83
2018-06-16T07:41:03.255Z,26.97
2018-06-16T07:42:03.282Z,26.91
2018-06-16T07:43:03.324Z,26.88
2018-06-16T07:44:03.347Z,27.01
2018-06-16T07:45:03.386Z,27.00
2018-06-16T07:46:03.409Z,27.11
2018-06-16T07:47:03.436Z,27.23
2018-06-16T07:48:03.475Z,27.19
2018-06-16T07:49:03.503Z,27.25
2018-06-16T07:50:03.542Z,27.30
2018-06-16T07:51:03.570Z,27.44
2018-06-16T07:52:03.603Z,27.48
2018-06-16T07:53:03.629Z,27.55
2018-06-16T07:54:03.667Z,27.60
2018-06-16T07:55:03.693Z,27.67
2018-06-16T07:56:03.731Z,27.64
2018-06-16T07:57:03.770Z,27.83
2018-06-16T07:58:03.795Z,27.88
2018-06-16T07:59:03.835Z,28.01
2018-06-16T08:00:03.864Z,28.00
2018-06-16T08:01:03.898Z,28.18
2018-06-16T08:02:03.925Z,28.16
2018-06-16T08:03:03.964Z,28.33
2018-06-16T08:04:04.002Z,28.37
2018-06-16T08:05:04.028Z,28.38
2018-06-16T08:06:04.068Z,28.53
2018-06-16T08:07:04.093Z,28.62
2018-06-16T08:08:04.130Z,28.71
2018-06-16T08:09:04.170Z,28.78
2018-06-16T08:10:04.195Z,28.89
2018-06-16T08:11:04.233Z,28.97
2018-06-16T08:12:04.272Z,29.05
2018-06-16T08:13:04.300Z,29.13
2018-06-16T08:14:04.336Z,29.31
2018-06-16T08:15:04.375Z,29.39
2018-06-16T08:16:04.402Z,29.50
2018-06-16T08:17:04.439Z,29.55
2018-06-16T08:18:04.486Z,29.58
2018-06-16T08:19:04.516Z,29.58
2018-06-16T08:20:04.542Z,29.74
2018-06-16T08:21:04.581Z,29.64
2018-06-16T08:22:04.618Z,29.73
2018-06-16T08:23:04.646Z,29.74
2018-06-16T08:24:04.684Z,29.64
2018-06-16T08:25:04.721Z,29.68
2018-06-16T08:26:04.760Z,29.67
2018-06-16T08:27:04.790Z,29.68
2018-06-16T08:28:04.824Z,29.65
2018-06-16T08:29:04.863Z,29.73
2018-06-16T08:30:04.901Z,29.76
2018-06-16T08:31:04.928Z,29.79
2018-06-16T08:32:04.965Z,29.79
2018-06-16T08:33:05.006Z,29.86
2018-06-16T08:34:05.043Z,29.95
2018-06-16T08:35:05.069Z,29.98
2018-06-16T08:36:05.107Z,30.08
2018-06-16T08:37:05.145Z,30.10
2018-06-16T08:38:05.183Z,30.16
2018-06-16T08:39:05.210Z,30.11
2018-06-16T08:40:05.249Z,30.16
2018-06-16T08:41:05.287Z,30.18
2018-06-16T08:42:05.312Z,30.20
2018-06-16T08:43:05.361Z,30.14
2018-06-16T08:44:05.389Z,30.27
2018-06-16T08:45:05.417Z,30.36
2018-06-16T08:46:05.454Z,30.33
2018-06-16T08:47:05.493Z,30.38
2018-06-16T08:48:05.534Z,30.52
2018-06-16T08:49:05.557Z,30.58
2018-06-16T08:50:05.595Z,30.65
2018-06-16T08:51:05.659Z,30.70
2018-06-16T08:52:05.672Z,30.88
2018-06-16T08:53:05.698Z,30.96
2018-06-16T08:54:05.738Z,31.04
2018-06-16T08:55:05.777Z,31.07
2018-06-16T08:56:05.814Z,31.14
2018-06-16T08:57:05.852Z,31.10
2018-06-16T08:58:05.877Z,31.08
2018-06-16T08:59:05.917Z,31.02
2018-06-16T09:00:05.954Z,31.04
2018-06-16T09:01:05.994Z,31.11
2018-06-16T09:02:06.031Z,31.17
2018-06-16T09:03:06.070Z,31.20
2018-06-16T09:04:06.097Z,31.39
2018-06-16T09:05:06.134Z,31.37
2018-06-16T09:06:06.175Z,31.41
2018-06-16T09:07:06.211Z,31.44
2018-06-16T09:08:06.250Z,31.50
2018-06-16T09:09:06.288Z,31.54
2018-06-16T09:10:06.327Z,31.59
2018-06-16T09:11:06.355Z,31.77
2018-06-16T09:12:06.392Z,31.85
2018-06-16T09:13:06.430Z,31.82
2018-06-16T09:14:06.468Z,32.00
2018-06-16T09:15:06.508Z,32.15
2018-06-16T09:16:06.545Z,32.34
2018-06-16T09:17:06.587Z,32.37
2018-06-16T09:18:06.621Z,32.34
2018-06-16T09:19:06.660Z,32.30
2018-06-16T09:20:06.698Z,32.53
2018-06-16T09:21:06.737Z,32.60
2018-06-16T09:22:06.774Z,32.68
2018-06-16T09:23:06.813Z,32.79
2018-06-16T09:24:06.853Z,32.93
2018-06-16T09:25:06.891Z,33.05
2018-06-16T09:26:06.928Z,33.28
2018-06-16T09:27:06.968Z,33.31
2018-06-16T09:28:07.012Z,33.29
2018-06-16T09:29:07.045Z,33.33
2018-06-16T09:30:07.095Z,33.38
2018-06-16T09:31:07.145Z,33.33
2018-06-16T09:32:07.185Z,33.29
2018-06-16T09:33:07.216Z,33.26
2018-06-16T09:34:07.249Z,33.36
2018-06-16T09:35:07.286Z,33.42
2018-06-16T09:36:07.375Z,33.39
2018-06-16T09:37:07.364Z,33.44
2018-06-16T09:38:07.403Z,33.39
2018-06-16T09:39:07.440Z,33.33
2018-06-16T09:40:07.480Z,33.33
2018-06-16T09:41:07.517Z,33.15
2018-06-16T09:42:07.589Z,33.20
2018-06-16T09:43:07.599Z,33.23
2018-06-16T09:44:07.634Z,33.26
2018-06-16T09:45:07.673Z,33.33
2018-06-16T09:46:07.711Z,33.38
2018-06-16T09:47:07.748Z,33.32
2018-06-16T09:48:07.791Z,33.29
2018-06-16T09:49:07.825Z,33.40
2018-06-16T09:50:07.864Z,33.39
2018-06-16T09:51:07.902Z,33.38
2018-06-16T09:52:07.945Z,33.47
2018-06-16T09:53:07.992Z,33.38
2018-06-16T09:54:08.031Z,33.65
2018-06-16T09:55:08.069Z,33.76
2018-06-16T09:56:08.106Z,33.91
2018-06-16T09:57:08.146Z,34.09
2018-06-16T09:58:08.186Z,34.26
2018-06-16T09:59:08.223Z,34.38
2018-06-16T10:00:08.262Z,34.63
2018-06-16T10:01:08.314Z,34.55
2018-06-16T10:02:08.350Z,34.78
2018-06-16T10:03:08.388Z,34.63
2018-06-16T10:04:08.431Z,34.82
2018-06-16T10:05:08.465Z,34.86
2018-06-16T10:06:08.517Z,35.08
2018-06-16T10:07:08.555Z,35.35
2018-06-16T10:08:08.593Z,35.57
2018-06-16T10:09:08.633Z,35.74
2018-06-16T10:10:08.685Z,35.87
2018-06-16T10:11:08.721Z,36.03
2018-06-16T10:12:08.760Z,36.20
2018-06-16T10:13:08.811Z,36.35
2018-06-16T10:14:08.850Z,36.51
2018-06-16T10:15:08.887Z,36.57
2018-06-16T10:16:08.927Z,36.63
2018-06-16T10:17:08.977Z,36.65
2018-06-16T10:18:09.016Z,36.67
2018-06-16T10:19:09.054Z,36.66
2018-06-16T10:20:09.118Z,36.53
2018-06-16T10:21:09.152Z,36.50
2018-06-16T10:22:09.182Z,36.39
2018-06-16T10:23:09.232Z,36.26
2018-06-16T10:24:09.272Z,36.09
2018-06-16T10:25:09.311Z,35.86
2018-06-16T10:26:09.349Z,35.66
2018-06-16T10:27:09.386Z,35.44
2018-06-16T10:28:09.426Z,35.16
2018-06-16T10:29:09.505Z,34.88
2018-06-16T10:30:09.502Z,34.69
2018-06-16T10:31:09.540Z,34.50
2018-06-16T10:32:09.579Z,34.43
2018-06-16T10:33:09.616Z,34.18
2018-06-16T10:34:09.657Z,34.03
2018-06-16T10:35:09.696Z,33.69
2018-06-16T10:36:09.733Z,33.55
2018-06-16T10:37:09.771Z,33.47
2018-06-16T10:38:09.810Z,33.38
2018-06-16T10:39:09.836Z,33.31
2018-06-16T10:40:09.875Z,33.26
2018-06-16T10:41:09.913Z,33.32
2018-06-16T10:42:09.959Z,33.19
2018-06-16T10:43:09.990Z,33.09
2018-06-16T10:44:10.028Z,33.04
2018-06-16T10:45:10.054Z,33.01
2018-06-16T10:46:10.092Z,32.97
2018-06-16T10:47:10.130Z,32.94
2018-06-16T10:48:10.169Z,32.88
2018-06-16T10:49:10.196Z,32.78
2018-06-16T10:50:10.246Z,32.75
2018-06-16T10:51:10.273Z,32.66
2018-06-16T10:52:10.311Z,32.66
2018-06-16T10:53:10.348Z,32.46
2018-06-16T10:54:10.376Z,32.53
2018-06-16T10:55:10.414Z,32.42
2018-06-16T10:56:10.452Z,32.38
2018-06-16T10:57:10.481Z,32.37
2018-06-16T10:58:10.517Z,32.29
2018-06-16T10:59:10.554Z,32.23
2018-06-16T11:00:10.592Z,32.20
2018-06-16T11:01:10.627Z,32.19
2018-06-16T11:02:10.657Z,31.89
2018-06-16T11:03:10.696Z,31.73
2018-06-16T11:04:10.735Z,31.73
2018-06-16T11:05:10.762Z,31.63
2018-06-16T11:06:10.799Z,31.57
2018-06-16T11:07:10.824Z,31.48
2018-06-16T11:08:10.863Z,31.45
2018-06-16T11:09:10.895Z,31.36
2018-06-16T11:10:10.930Z,31.33
2018-06-16T11:11:10.968Z,31.28
2018-06-16T11:12:10.992Z,31.32
2018-06-16T11:13:11.030Z,31.20
2018-06-16T11:14:11.056Z,31.17
2018-06-16T11:15:11.095Z,31.13
2018-06-16T11:16:11.133Z,31.10
2018-06-16T11:17:11.161Z,31.10
2018-06-16T11:18:11.199Z,31.15
2018-06-16T11:19:11.224Z,31.13
2018-06-16T11:20:11.262Z,31.13
2018-06-16T11:21:11.288Z,31.07
2018-06-16T11:22:11.327Z,31.15
2018-06-16T11:23:11.364Z,31.07
2018-06-16T11:24:11.394Z,31.05
2018-06-16T11:25:11.428Z,30.91
2018-06-16T11:26:11.455Z,31.00
2018-06-16T11:27:11.494Z,31.05
2018-06-16T11:28:11.519Z,31.07
2018-06-16T11:29:11.558Z,31.08
2018-06-16T11:30:11.595Z,31.05
2018-06-16T11:31:11.622Z,31.05
2018-06-16T11:32:11.660Z,31.05
2018-06-16T11:33:11.687Z,31.15
2018-06-16T11:34:11.724Z,31.20
2018-06-16T11:35:11.765Z,31.32
2018-06-16T11:36:11.789Z,31.45
2018-06-16T11:37:11.827Z,31.42
2018-06-16T11:38:11.855Z,31.57
2018-06-16T11:39:11.893Z,31.51
2018-06-16T11:40:11.943Z,31.54
2018-06-16T11:41:11.956Z,31.52
2018-06-16T11:42:11.995Z,31.48
2018-06-16T11:43:12.033Z,31.44
2018-06-16T11:44:12.059Z,31.50
2018-06-16T11:45:12.098Z,31.62
2018-06-16T11:46:12.135Z,31.63
2018-06-16T11:47:12.161Z,31.57
2018-06-16T11:48:12.201Z,31.72
2018-06-16T11:49:12.238Z,31.70
2018-06-16T11:50:12.279Z,31.66
2018-06-16T11:51:12.304Z,31.77
2018-06-16T11:52:12.342Z,31.72
2018-06-16T11:53:12.366Z,31.77
2018-06-16T11:54:12.406Z,31.79
2018-06-16T11:55:12.444Z,31.93
2018-06-16T11:56:12.469Z,31.98
2018-06-16T11:57:12.509Z,32.08
2018-06-16T11:58:12.547Z,32.08
2018-06-16T11:59:12.573Z,32.11
2018-06-16T12:00:12.613Z,32.08
2018-06-16T12:01:12.651Z,32.17
2018-06-16T12:02:12.689Z,32.22
2018-06-16T12:03:12.717Z,32.11
2018-06-16T12:04:12.752Z,32.09
2018-06-16T12:05:12.779Z,32.09
2018-06-16T12:06:12.818Z,32.15
2018-06-16T12:07:12.854Z,32.00
2018-06-16T12:08:12.882Z,32.07
2018-06-16T12:09:12.920Z,32.05
2018-06-16T12:10:13.003Z,32.00
2018-06-16T12:11:12.984Z,31.85
2018-06-16T12:12:13.023Z,31.73
2018-06-16T12:13:13.049Z,31.63
2018-06-16T12:14:13.087Z,31.55
2018-06-16T12:15:13.113Z,31.48
2018-06-16T12:16:13.152Z,31.41
2018-06-16T12:17:13.189Z,31.45
2018-06-16T12:18:13.216Z,31.39
2018-06-16T12:19:13.256Z,31.30
2018-06-16T12:20:13.331Z,31.33
2018-06-16T12:21:13.324Z,31.25
2018-06-16T12:22:13.355Z,31.07
2018-06-16T12:23:13.382Z,31.04
2018-06-16T12:24:13.421Z,31.07
2018-06-16T12:25:13.450Z,30.92
2018-06-16T12:26:13.486Z,30.91
2018-06-16T12:27:13.513Z,30.81
2018-06-16T12:28:13.550Z,30.76
2018-06-16T12:29:13.576Z,30.65
2018-06-16T12:30:13.615Z,30.67
2018-06-16T12:31:13.661Z,30.59
2018-06-16T12:32:13.680Z,30.58
2018-06-16T12:33:13.705Z,30.48
2018-06-16T12:34:13.743Z,30.46
2018-06-16T12:35:13.770Z,30.49
2018-06-16T12:36:13.808Z,30.48
2018-06-16T12:37:13.833Z,30.39
2018-06-16T12:38:13.874Z,30.44
2018-06-16T12:39:13.955Z,30.48
2018-06-16T12:40:13.924Z,30.32
2018-06-16T12:41:13.963Z,30.39
2018-06-16T12:42:13.989Z,30.36
2018-06-16T12:43:14.027Z,30.43
2018-06-16T12:44:14.053Z,30.38
2018-06-16T12:45:14.090Z,30.38
2018-06-16T12:46:14.116Z,30.43
2018-06-16T12:47:14.155Z,30.36
2018-06-16T12:48:14.182Z,30.49
2018-06-16T12:49:14.219Z,30.35
2018-06-16T12:50:14.245Z,30.38
2018-06-16T12:51:14.284Z,30.35
2018-06-16T12:52:14.311Z,30.39
2018-06-16T12:53:14.349Z,30.31